createdAt,value
2022-10-31T00:01:17.465Z,9.53
2022-10-31T00:03:45.340Z,8.90
2022-10-31T00:06:13.096Z,8.90
2022-10-31T00:08:40.991Z,9.10
2022-10-31T00:11:12.248Z,9.43
2022-10-31T00:13:40.130Z,9.47
2022-10-31T00:16:09.319Z,9.03
2022-10-31T00:18:37.171Z,9.13
2022-10-31T00:21:05.912Z,9.33
2022-10-31T00:23:33.793Z,9.07
2022-10-31T00:26:05.253Z,9.53
2022-10-31T00:28:33.934Z,8.77
2022-10-31T00:31:05.653Z,8.70
2022-10-31T00:33:35.414Z,9.03
2022-10-31T00:36:03.339Z,9.17
2022-10-31T00:38:31.202Z,8.60
2022-10-31T00:40:59.014Z,8.90
2022-10-31T00:43:26.887Z,7.80
2022-10-31T00:45:54.640Z,7.60
2022-10-31T00:48:22.566Z,7.43
2022-10-31T00:50:50.483Z,6.37
2022-10-31T00:53:18.231Z,6.70
2022-10-31T00:55:46.097Z,7.27
2022-10-31T01:00:44.588Z,7.37
2022-10-31T01:03:14.636Z,7.27
2022-10-31T01:05:42.373Z,6.87
2022-10-31T01:08:10.210Z,7.03
2022-10-31T01:10:38.136Z,6.90
2022-10-31T01:13:05.900Z,7.30
2022-10-31T01:15:33.710Z,6.30
2022-10-31T01:18:01.734Z,6.40
2022-10-31T01:20:29.928Z,6.40
2022-10-31T01:22:57.725Z,7.00
2022-10-31T01:25:25.451Z,6.80
2022-10-31T01:27:53.223Z,6.67
2022-10-31T01:30:21.147Z,7.00
2022-10-31T01:32:48.851Z,7.50
2022-10-31T01:35:16.692Z,6.80
2022-10-31T01:37:49.077Z,6.37
2022-10-31T01:40:16.879Z,7.03
2022-10-31T01:42:44.638Z,7.23
2022-10-31T01:45:12.750Z,8.03
2022-10-31T01:47:45.839Z,7.53
2022-10-31T01:50:18.009Z,8.43
2022-10-31T01:52:47.998Z,8.27
2022-10-31T01:55:25.217Z,8.20
2022-10-31T01:57:59.223Z,8.07
2022-10-31T02:00:27.451Z,7.93
2022-10-31T02:02:58.206Z,8.80
2022-10-31T02:05:28.231Z,8.30
2022-10-31T02:08:02.710Z,8.43
2022-10-31T02:10:30.535Z,8.33
2022-10-31T02:13:03.332Z,7.43
2022-10-31T02:15:32.075Z,7.57
2022-10-31T02:18:00.202Z,7.63
2022-10-31T02:20:32.139Z,7.17
2022-10-31T02:23:18.006Z,7.83
2022-10-31T02:26:10.089Z,7.40
2022-10-31T02:28:59.277Z,7.67
2022-10-31T02:31:53.188Z,6.70
2022-10-31T02:34:23.485Z,6.77
2022-10-31T02:36:56.342Z,6.93
2022-10-31T02:39:32.598Z,6.93
2022-10-31T02:42:09.499Z,6.93
2022-10-31T02:44:46.293Z,7.70
2022-10-31T02:47:15.833Z,7.87
2022-10-31T02:49:56.875Z,7.83
2022-10-31T02:52:29.444Z,7.33
2022-10-31T02:54:57.403Z,7.90
2022-10-31T02:57:30.615Z,8.20
2022-10-31T03:00:04.202Z,8.30
2022-10-31T03:02:54.029Z,8.50
2022-10-31T03:05:36.912Z,8.47
2022-10-31T03:08:07.488Z,7.93
2022-10-31T03:10:38.647Z,8.33
2022-10-31T03:13:18.475Z,9.37
2022-10-31T03:15:46.969Z,8.87
2022-10-31T03:18:23.726Z,9.67
2022-10-31T03:20:56.858Z,9.50
2022-10-31T03:23:24.960Z,9.40
2022-10-31T03:25:53.286Z,9.23
2022-10-31T03:28:22.413Z,8.57
2022-10-31T03:30:50.194Z,8.97
2022-10-31T03:33:20.111Z,9.70
2022-10-31T03:35:48.985Z,9.47
2022-10-31T03:38:16.808Z,9.50
2022-10-31T03:40:45.868Z,9.40
2022-10-31T03:43:16.584Z,9.67
2022-10-31T03:45:46.594Z,9.50
2022-10-31T03:48:15.898Z,9.30
2022-10-31T03:51:08.117Z,9.63
2022-10-31T03:53:38.997Z,9.80
2022-10-31T03:56:12.411Z,9.57
2022-10-31T03:58:49.930Z,10.03
2022-10-31T04:01:18.475Z,9.90
2022-10-31T04:03:46.400Z,9.47
2022-10-31T04:06:15.873Z,9.47
2022-10-31T04:08:46.752Z,9.60
2022-10-31T04:11:14.653Z,9.73
2022-10-31T04:13:42.442Z,9.13
2022-10-31T04:16:12.750Z,9.93
2022-10-31T04:18:43.930Z,9.10
2022-10-31T04:21:11.817Z,9.97
2022-10-31T04:23:39.706Z,9.77
2022-10-31T04:26:07.564Z,9.70
2022-10-31T04:28:35.897Z,8.77
2022-10-31T04:31:03.777Z,10.10
2022-10-31T04:33:31.664Z,9.90
2022-10-31T04:35:59.434Z,9.27
2022-10-31T04:38:27.239Z,8.83
2022-10-31T04:40:55.128Z,8.93
2022-10-31T04:43:22.999Z,10.17
2022-10-31T04:45:50.886Z,9.17
2022-10-31T04:48:18.637Z,8.83
2022-10-31T04:50:46.451Z,8.80
2022-10-31T04:53:14.230Z,9.00
2022-10-31T04:55:42.170Z,9.33
2022-10-31T04:58:09.972Z,9.10
2022-10-31T05:00:37.781Z,9.13
2022-10-31T05:03:05.590Z,8.27
2022-10-31T05:05:33.577Z,9.00
2022-10-31T05:08:01.474Z,8.47
2022-10-31T05:10:30.573Z,8.10
2022-10-31T05:13:03.052Z,7.90
2022-10-31T05:15:31.432Z,7.80
2022-10-31T05:17:59.773Z,7.83
2022-10-31T05:20:29.755Z,8.27
2022-10-31T05:22:58.429Z,8.13
2022-10-31T05:25:28.460Z,8.57
2022-10-31T05:27:57.060Z,8.33
2022-10-31T05:30:27.115Z,8.33
2022-10-31T05:32:55.071Z,8.37
2022-10-31T05:35:27.622Z,8.37
2022-10-31T05:37:55.490Z,7.40
2022-10-31T05:40:23.582Z,7.87
2022-10-31T05:42:53.435Z,7.07
2022-10-31T05:45:21.551Z,7.47
2022-10-31T05:48:07.611Z,7.53
2022-10-31T05:50:35.386Z,6.20
2022-10-31T05:53:07.027Z,6.83
2022-10-31T05:55:34.834Z,6.83
2022-10-31T05:58:02.996Z,6.67
2022-10-31T06:00:31.055Z,7.20
2022-10-31T06:03:02.969Z,7.27
2022-10-31T06:05:31.444Z,7.13
2022-10-31T06:07:59.674Z,7.83
2022-10-31T06:10:27.933Z,7.17
2022-10-31T06:12:55.847Z,7.57
2022-10-31T06:15:24.930Z,7.40
2022-10-31T06:18:03.538Z,7.53
2022-10-31T06:20:31.951Z,7.07
2022-10-31T06:23:00.145Z,7.47
2022-10-31T06:25:28.279Z,7.63
2022-10-31T06:27:56.994Z,6.97
2022-10-31T06:30:24.831Z,7.67
2022-10-31T06:32:52.750Z,7.57
2022-10-31T06:35:20.666Z,7.03
2022-10-31T06:37:55.558Z,7.97
2022-10-31T06:40:23.484Z,7.80
2022-10-31T06:43:01.447Z,8.27
2022-10-31T06:45:29.366Z,7.80
2022-10-31T06:48:15.998Z,7.00
2022-10-31T06:50:44.205Z,6.67
2022-10-31T06:53:12.392Z,6.20
2022-10-31T06:55:43.923Z,5.80
2022-10-31T06:58:12.447Z,6.20
2022-10-31T07:00:40.590Z,5.73
2022-10-31T07:03:12.930Z,6.00
2022-10-31T07:05:41.293Z,6.80
2022-10-31T07:08:10.698Z,6.23
2022-10-31T07:10:40.569Z,3.80
2022-10-31T07:13:14.955Z,6.70
2022-10-31T07:15:43.509Z,5.80
2022-10-31T07:18:12.038Z,5.50
2022-10-31T07:20:39.844Z,5.67
2022-10-31T07:23:07.699Z,5.37
2022-10-31T07:25:35.542Z,5.37
2022-10-31T07:28:03.839Z,5.53
2022-10-31T07:30:31.812Z,6.33
2022-10-31T07:32:59.834Z,5.17
2022-10-31T07:35:30.019Z,5.43
2022-10-31T07:37:58.052Z,5.47
2022-10-31T07:40:26.566Z,5.83
2022-10-31T07:42:54.878Z,5.30
2022-10-31T07:45:23.668Z,5.53
2022-10-31T07:47:53.017Z,5.57
2022-10-31T07:50:31.204Z,5.77
2022-10-31T07:53:10.224Z,5.90
2022-10-31T07:55:38.296Z,5.47
2022-10-31T07:58:16.748Z,6.13
2022-10-31T08:00:46.099Z,5.53
2022-10-31T08:03:15.815Z,6.40
2022-10-31T08:05:43.829Z,5.47
2022-10-31T08:08:11.912Z,6.00
2022-10-31T08:10:39.879Z,5.47
2022-10-31T08:13:09.422Z,5.40
2022-10-31T08:15:40.140Z,4.97
2022-10-31T08:18:08.394Z,5.00
2022-10-31T08:20:36.323Z,5.73
2022-10-31T08:23:06.183Z,5.77
2022-10-31T08:25:38.366Z,5.20
2022-10-31T08:28:07.235Z,6.73
2022-10-31T08:30:36.317Z,5.67
2022-10-31T08:33:15.727Z,5.67
2022-10-31T08:35:43.977Z,6.23
2022-10-31T08:38:13.179Z,6.77
2022-10-31T08:40:41.388Z,6.47
2022-10-31T08:43:17.946Z,6.93
2022-10-31T08:45:46.341Z,6.23
2022-10-31T08:48:15.799Z,6.60
2022-10-31T08:50:43.757Z,6.87
2022-10-31T08:53:19.583Z,7.10
2022-10-31T08:55:48.272Z,7.47
2022-10-31T08:58:18.125Z,6.83
2022-10-31T09:00:47.082Z,6.40
2022-10-31T09:03:20.237Z,6.10
2022-10-31T09:05:48.439Z,6.10
2022-10-31T09:08:17.199Z,7.00
2022-10-31T09:10:45.647Z,6.80
2022-10-31T09:13:18.505Z,6.50
2022-10-31T09:15:47.341Z,6.77
2022-10-31T09:18:17.375Z,6.93
2022-10-31T09:20:46.635Z,7.07
2022-10-31T09:23:19.462Z,7.33
2022-10-31T09:25:50.692Z,7.93
2022-10-31T09:28:20.747Z,8.03
2022-10-31T09:30:49.972Z,7.40
2022-10-31T09:33:18.029Z,8.00
2022-10-31T09:35:45.969Z,7.53
2022-10-31T09:38:18.110Z,8.37
2022-10-31T09:40:47.028Z,7.63
2022-10-31T09:43:45.744Z,8.10
2022-10-31T09:46:18.771Z,8.33
2022-10-31T09:48:52.551Z,8.80
2022-10-31T09:51:23.083Z,9.40
2022-10-31T09:54:25.054Z,8.77
2022-10-31T09:56:52.870Z,8.83
2022-10-31T09:59:28.074Z,8.93
2022-10-31T10:02:08.078Z,9.00
2022-10-31T10:04:46.633Z,9.00
2022-10-31T10:07:41.846Z,9.77
2022-10-31T10:10:23.286Z,10.50
2022-10-31T10:13:18.953Z,9.73
2022-10-31T10:15:46.685Z,10.37
2022-10-31T10:18:24.898Z,10.33
2022-10-31T10:21:07.713Z,11.10
2022-10-31T10:24:01.940Z,10.13
2022-10-31T10:26:38.449Z,10.37
2022-10-31T10:29:13.873Z,10.57
2022-10-31T10:31:42.741Z,11.17
2022-10-31T10:34:20.055Z,11.27
2022-10-31T10:37:00.196Z,11.37
2022-10-31T10:39:32.284Z,12.33
2022-10-31T10:42:18.840Z,11.70
2022-10-31T10:45:07.152Z,11.23
2022-10-31T10:47:44.759Z,11.50
2022-10-31T10:50:24.572Z,12.63
2022-10-31T10:53:05.469Z,12.17
2022-10-31T10:55:53.375Z,12.57
2022-10-31T10:58:21.448Z,12.47
2022-10-31T11:00:50.091Z,12.63
2022-10-31T11:03:18.853Z,12.77
2022-10-31T11:05:53.299Z,12.83
2022-10-31T11:08:30.222Z,12.83
2022-10-31T11:11:01.186Z,12.03
2022-10-31T11:13:29.427Z,12.77
2022-10-31T11:16:02.745Z,12.05
2022-10-31T11:18:34.088Z,12.87
2022-10-31T11:21:03.176Z,13.53
2022-10-31T11:23:31.231Z,13.80
2022-10-31T11:26:00.984Z,13.47
2022-10-31T11:28:31.597Z,14.47
2022-10-31T11:31:07.269Z,14.30
2022-10-31T11:33:52.014Z,13.43
2022-10-31T11:36:27.170Z,13.33
2022-10-31T11:38:55.171Z,13.67
2022-10-31T11:41:37.010Z,14.00
2022-10-31T11:44:14.426Z,13.98
2022-10-31T11:46:43.963Z,14.87
2022-10-31T11:49:25.327Z,13.63
2022-10-31T11:51:55.855Z,13.90
2022-10-31T11:54:28.516Z,13.75
2022-10-31T11:56:56.363Z,13.10
2022-10-31T11:59:30.124Z,12.93
2022-10-31T12:01:59.948Z,12.87
2022-10-31T12:04:36.760Z,13.60
2022-10-31T12:07:04.670Z,12.80
2022-10-31T12:09:36.996Z,12.40
2022-10-31T12:12:18.393Z,12.20
2022-10-31T12:15:07.403Z,12.63
2022-10-31T12:17:53.923Z,13.43
2022-10-31T12:20:57.812Z,12.70
2022-10-31T12:23:44.277Z,13.43
2022-10-31T12:26:35.508Z,12.77
2022-10-31T12:29:20.581Z,13.38
2022-10-31T12:32:22.300Z,12.87
2022-10-31T12:34:59.506Z,12.32
2022-10-31T12:37:49.268Z,12.07
2022-10-31T12:40:32.245Z,12.10
2022-10-31T12:43:08.763Z,11.05
2022-10-31T12:45:57.415Z,10.95
2022-10-31T12:49:05.074Z,11.53
2022-10-31T12:51:58.642Z,10.18
2022-10-31T12:54:47.028Z,10.30
2022-10-31T12:57:28.270Z,10.40
2022-10-31T13:00:01.719Z,10.82
2022-10-31T13:02:53.145Z,12.02
2022-10-31T13:05:28.874Z,12.20
2022-10-31T13:08:21.442Z,11.23
2022-10-31T13:13:56.002Z,11.07
2022-10-31T13:16:25.361Z,12.02
2022-10-31T13:18:54.425Z,12.05
2022-10-31T13:21:35.538Z,11.60
2022-10-31T13:24:05.188Z,9.52
2022-10-31T13:26:48.203Z,11.45
2022-10-31T13:29:42.184Z,10.73
2022-10-31T13:32:10.312Z,10.80
2022-10-31T13:34:55.417Z,11.35
2022-10-31T13:37:43.870Z,11.90
2022-10-31T13:40:11.910Z,12.07
2022-10-31T13:43:03.461Z,12.55
2022-10-31T13:45:31.547Z,15.27
2022-10-31T13:48:17.717Z,17.60
2022-10-31T13:50:57.124Z,15.77
2022-10-31T13:53:25.179Z,15.15
2022-10-31T13:56:12.888Z,16.15
2022-10-31T13:58:40.706Z,16.35
2022-10-31T14:01:24.445Z,15.80
2022-10-31T14:04:25.198Z,16.17
2022-10-31T14:07:15.928Z,15.60
2022-10-31T14:09:56.708Z,15.85
2022-10-31T14:12:40.395Z,16.35
2022-10-31T14:15:19.880Z,15.65
2022-10-31T14:18:04.643Z,16.27
2022-10-31T14:20:47.930Z,15.85
2022-10-31T14:23:36.431Z,16.17
2022-10-31T14:26:30.459Z,15.00
2022-10-31T14:29:03.019Z,17.08
2022-10-31T14:31:42.972Z,16.62
2022-10-31T14:34:10.624Z,18.30
2022-10-31T14:36:47.062Z,17.12
2022-10-31T14:39:24.308Z,14.50
2022-10-31T14:42:08.127Z,14.75
2022-10-31T14:44:54.549Z,14.00
2022-10-31T14:47:31.227Z,14.38
2022-10-31T14:50:31.342Z,14.38
2022-10-31T14:52:59.778Z,14.02
2022-10-31T14:55:27.882Z,15.18
2022-10-31T14:58:17.810Z,14.13
2022-10-31T15:00:45.672Z,13.33
2022-10-31T15:03:18.403Z,14.05
2022-10-31T15:05:54.070Z,11.80
2022-10-31T15:08:36.096Z,12.23
2022-10-31T15:11:18.902Z,12.63
2022-10-31T15:13:54.296Z,11.93
2022-10-31T15:16:25.607Z,12.47
2022-10-31T15:19:06.186Z,11.67
2022-10-31T15:21:34.113Z,10.00
2022-10-31T15:24:02.774Z,8.93
2022-10-31T15:26:35.348Z,9.70
2022-10-31T15:29:25.418Z,10.38
2022-10-31T15:31:59.558Z,10.13
2022-10-31T15:34:44.245Z,10.00
2022-10-31T15:37:13.910Z,10.13
2022-10-31T15:39:42.098Z,9.20
2022-10-31T15:42:24.483Z,8.83
2022-10-31T15:45:05.240Z,9.60
2022-10-31T15:47:34.071Z,9.77
2022-10-31T15:50:02.802Z,10.43
2022-10-31T15:52:45.236Z,9.93
2022-10-31T15:55:22.814Z,9.70
2022-10-31T15:57:52.320Z,10.53
2022-10-31T16:00:29.789Z,8.93
2022-10-31T16:03:13.045Z,10.80
2022-10-31T16:05:46.096Z,10.37
2022-10-31T16:08:32.237Z,10.40
2022-10-31T16:11:09.357Z,11.27
2022-10-31T16:13:39.209Z,11.20
2022-10-31T16:19:05.158Z,10.20
2022-10-31T16:21:37.828Z,11.33
2022-10-31T16:24:13.341Z,10.70
2022-10-31T16:26:41.138Z,10.97
2022-10-31T16:29:28.521Z,10.77
2022-10-31T16:31:56.352Z,11.10
2022-10-31T16:34:26.846Z,10.02
2022-10-31T16:36:55.367Z,10.23
2022-10-31T16:39:23.511Z,10.30
2022-10-31T16:41:54.058Z,10.40
2022-10-31T16:44:26.536Z,10.80
2022-10-31T16:47:15.307Z,11.27
2022-10-31T16:49:48.582Z,11.57
2022-10-31T16:52:16.468Z,11.47
2022-10-31T16:54:44.231Z,12.07
2022-10-31T16:57:17.925Z,12.37
2022-10-31T16:59:46.328Z,11.57
2022-10-31T17:02:18.276Z,12.50
2022-10-31T17:04:47.606Z,13.13
2022-10-31T17:07:17.433Z,13.60
2022-10-31T17:09:45.203Z,13.73
2022-10-31T17:12:17.362Z,13.73
2022-10-31T17:14:45.177Z,13.30
2022-10-31T17:17:12.914Z,13.13
2022-10-31T17:19:40.840Z,14.20
2022-10-31T17:22:09.706Z,13.27
2022-10-31T17:24:37.583Z,13.73
2022-10-31T17:27:05.598Z,13.37
2022-10-31T17:29:34.018Z,13.73
2022-10-31T17:32:03.003Z,14.13
2022-10-31T17:34:31.061Z,12.90
2022-10-31T17:36:58.960Z,14.37
2022-10-31T17:39:26.862Z,14.70
2022-10-31T17:41:54.694Z,14.00
2022-10-31T17:44:22.658Z,14.20
2022-10-31T17:46:50.734Z,14.20
2022-10-31T17:49:18.809Z,15.90
2022-10-31T17:51:51.847Z,14.73
2022-10-31T17:54:23.875Z,14.70
2022-10-31T17:56:52.297Z,15.47
2022-10-31T17:59:22.224Z,15.27
2022-10-31T18:01:52.751Z,15.33
2022-10-31T18:04:20.819Z,16.73
2022-10-31T18:06:51.059Z,15.70
2022-10-31T18:09:19.135Z,16.40
2022-10-31T18:11:47.256Z,16.23
2022-10-31T18:14:17.827Z,16.50
2022-10-31T18:16:46.516Z,15.47
2022-10-31T18:19:16.041Z,15.93
2022-10-31T18:21:47.061Z,15.53
2022-10-31T18:24:15.694Z,15.80
2022-10-31T18:26:52.527Z,14.80
2022-10-31T18:29:20.680Z,15.27
2022-10-31T18:31:54.839Z,17.07
2022-10-31T18:34:23.700Z,15.67
2022-10-31T18:36:57.428Z,15.57
2022-10-31T18:39:26.035Z,14.23
2022-10-31T18:41:56.326Z,15.07
2022-10-31T18:44:27.935Z,15.90
2022-10-31T18:46:59.005Z,15.83
2022-10-31T18:49:34.011Z,15.80
2022-10-31T18:52:06.438Z,15.20
2022-10-31T18:54:34.321Z,14.40
2022-10-31T18:57:02.538Z,14.87
2022-10-31T18:59:30.655Z,14.67
2022-10-31T19:02:03.839Z,14.80
2022-10-31T19:04:31.882Z,13.33
2022-10-31T19:06:59.879Z,15.17
2022-10-31T19:09:28.072Z,14.53
2022-10-31T19:11:56.096Z,13.87
2022-10-31T19:14:27.031Z,13.07
2022-10-31T19:17:02.634Z,14.10
2022-10-31T19:19:30.688Z,14.43
2022-10-31T19:21:59.004Z,13.40
2022-10-31T19:24:26.798Z,13.93
2022-10-31T19:26:54.676Z,13.53
2022-10-31T19:29:22.522Z,15.03
2022-10-31T19:31:50.425Z,13.00
2022-10-31T19:34:18.535Z,13.50
2022-10-31T19:36:46.737Z,12.37
2022-10-31T19:39:14.607Z,13.07
2022-10-31T19:41:42.795Z,14.10
2022-10-31T19:44:13.358Z,12.77
2022-10-31T19:46:54.116Z,12.57
2022-10-31T19:49:22.528Z,11.80
2022-10-31T19:51:50.441Z,11.83
2022-10-31T19:54:18.412Z,12.37
2022-10-31T19:56:46.277Z,11.67
2022-10-31T19:59:17.077Z,12.30
2022-10-31T20:01:45.115Z,11.70
2022-10-31T20:04:13.072Z,12.20
2022-10-31T20:06:41.951Z,12.23
2022-10-31T20:09:14.341Z,12.67
2022-10-31T20:11:42.954Z,12.37
2022-10-31T20:14:12.889Z,11.87
2022-10-31T20:16:41.114Z,12.30
2022-10-31T20:19:09.033Z,11.67
2022-10-31T20:21:38.886Z,11.40
2022-10-31T20:24:08.603Z,11.87
2022-10-31T20:26:40.897Z,12.40
2022-10-31T20:29:08.777Z,12.10
2022-10-31T20:31:37.217Z,11.93
2022-10-31T20:34:05.593Z,12.60
2022-10-31T20:36:35.125Z,12.33
2022-10-31T20:39:03.139Z,12.40
2022-10-31T20:41:30.917Z,12.23
2022-10-31T20:43:59.286Z,13.13
2022-10-31T20:46:27.926Z,12.53
2022-10-31T20:48:55.875Z,13.73
2022-10-31T20:51:25.727Z,13.70
2022-10-31T20:53:54.120Z,13.63
2022-10-31T20:56:24.140Z,13.27
2022-10-31T20:58:52.082Z,13.30
2022-10-31T21:01:28.307Z,12.40
2022-10-31T21:03:56.253Z,12.67
2022-10-31T21:06:24.596Z,12.77
2022-10-31T21:08:52.535Z,13.57
2022-10-31T21:11:22.503Z,13.33
2022-10-31T21:13:50.785Z,12.27
2022-10-31T21:16:23.707Z,12.70
2022-10-31T21:18:51.798Z,12.70
2022-10-31T21:21:32.429Z,12.27
2022-10-31T21:24:03.004Z,12.60
2022-10-31T21:26:32.642Z,11.80
2022-10-31T21:29:00.716Z,11.77
2022-10-31T21:31:29.425Z,11.87
2022-10-31T21:33:57.315Z,10.90
2022-10-31T21:36:25.531Z,11.27
2022-10-31T21:38:53.817Z,11.30
2022-10-31T21:41:21.852Z,10.97
2022-10-31T21:43:50.632Z,10.50
2022-10-31T21:46:23.226Z,11.37
2022-10-31T21:48:51.116Z,10.53
2022-10-31T21:51:29.603Z,10.83
2022-10-31T21:54:16.195Z,11.50
2022-10-31T21:56:44.167Z,11.57
2022-10-31T21:59:14.978Z,10.87
2022-10-31T22:01:42.998Z,12.50
2022-10-31T22:04:10.927Z,11.70
2022-10-31T22:06:39.041Z,11.13
2022-10-31T22:09:07.938Z,11.27
2022-10-31T22:11:35.972Z,12.70
2022-10-31T22:14:03.784Z,12.73
2022-10-31T22:16:31.665Z,11.47
2022-10-31T22:19:00.585Z,12.17
2022-10-31T22:21:28.991Z,11.40
2022-10-31T22:24:03.516Z,12.17
2022-10-31T22:26:35.369Z,12.70
2022-10-31T22:29:04.667Z,11.87
2022-10-31T22:31:32.943Z,13.23
2022-10-31T22:34:00.939Z,11.97
2022-10-31T22:36:29.680Z,12.33
2022-10-31T22:38:57.742Z,12.20
2022-10-31T22:41:27.270Z,11.67
2022-10-31T22:43:55.784Z,11.87
2022-10-31T22:46:25.376Z,12.57
2022-10-31T22:48:54.894Z,11.17
2022-10-31T22:51:27.432Z,11.53
2022-10-31T22:53:57.968Z,10.77
2022-10-31T22:56:28.031Z,10.70
2022-10-31T22:58:55.794Z,10.57
2022-10-31T23:01:25.289Z,9.27
2022-10-31T23:03:53.128Z,10.27
2022-10-31T23:06:22.566Z,10.33
2022-10-31T23:08:51.473Z,10.63
2022-10-31T23:11:27.349Z,9.63
2022-10-31T23:14:14.586Z,10.10
2022-10-31T23:16:55.972Z,9.70
2022-10-31T23:19:26.440Z,10.43
2022-10-31T23:21:55.901Z,8.10
2022-10-31T23:24:39.062Z,10.17
2022-10-31T23:27:14.000Z,9.67
2022-10-31T23:29:52.294Z,10.63
2022-10-31T23:32:21.772Z,10.10
2022-10-31T23:34:51.165Z,11.00
2022-10-31T23:37:19.608Z,9.90
2022-10-31T23:39:47.459Z,10.97
2022-10-31T23:42:15.427Z,10.17
2022-10-31T23:44:43.272Z,9.47
2022-10-31T23:47:11.087Z,9.63
2022-10-31T23:49:38.917Z,9.23
2022-10-31T23:52:06.949Z,9.57
2022-10-31T23:54:34.844Z,9.70
2022-10-31T23:57:02.947Z,10.07
2022-10-31T23:59:30.751Z,8.73
